Time;durP1;ratioP1;P1;durP2;ratioP2;P2;SDS_P1;SDS_P2;PMS_P1;PMS_P2;Temp;Humidity;BMP_temperature;BMP_pressure;BME280_temperature;BME280_humidity;BME280_pressure;Samples;Min_cycle;Max_cycle;Signal;HPM_P1;HPM_P2
2022/05/13 00:04:59;;;;;;;8.60;2.83;;;;;;;13.85;61.97;100736.23;5150996;56;1139168;-73
2022/05/13 00:10:08;;;;;;;6.40;2.87;;;;;;;13.90;62.10;100744.66;5181684;56;1139139;-74
2022/05/13 00:15:18;;;;;;;7.63;2.63;;;;;;;13.98;62.25;100746.14;5193920;56;1139319;-73
2022/05/13 00:20:26;;;;;;;4.73;2.47;;;;;;;13.96;61.92;100755.58;5228148;56;1139025;-75
2022/05/13 00:25:36;;;;;;;4.33;1.80;;;;;;;13.69;61.79;100732.75;5228291;56;1138990;-75
2022/05/13 00:30:48;;;;;;;5.07;2.43;;;;;;;13.69;61.79;100732.75;5228368;56;1138647;-76
2022/05/13 00:35:52;;;;;;;4.10;1.90;;;;;;;13.71;61.74;100744.94;5228545;56;1139391;-75
2022/05/13 00:41:00;;;;;;;3.33;1.90;;;;;;;13.66;61.89;100743.64;5228422;56;1138908;-73
2022/05/13 00:46:05;;;;;;;2.70;2.03;;;;;;;13.66;62.00;100740.98;5228306;56;1139336;-74
2022/05/13 00:51:16;;;;;;;5.60;2.27;;;;;;;13.65;62.04;100728.18;5190176;56;1139081;-73
2022/05/13 00:56:23;;;;;;;4.30;1.70;;;;;;;13.64;61.96;100737.12;5223779;56;1136960;-75
2022/05/13 01:01:29;;;;;;;7.67;2.30;;;;;;;13.56;61.97;100729.48;5223872;56;1136890;-73
2022/05/13 01:06:37;;;;;;;11.00;4.90;;;;;;;13.44;62.03;100731.87;5223702;56;1136955;-74
2022/05/13 01:11:45;;;;;;;5.70;2.33;;;;;;;13.23;62.08;100738.52;5223579;56;1139050;-76
2022/05/13 01:22:19;;;;;;;3.20;2.07;;;;;;;13.01;62.91;100736.31;5223779;56;1136871;-75
2022/05/13 01:27:25;;;;;;;6.67;2.93;;;;;;;13.03;63.40;100734.86;5169318;56;1136958;-74
2022/05/13 01:32:30;;;;;;;13.20;3.37;;;;;;;12.92;63.05;100738.91;5153006;56;1136931;-73
2022/05/13 01:37:37;;;;;;;4.83;2.90;;;;;;;12.83;63.30;100744.48;5223704;56;1139040;-75
2022/05/13 01:42:43;;;;;;;5.00;2.43;;;;;;;12.74;63.49;100740.45;5188738;56;1137395;-73
2022/05/13 01:47:48;;;;;;;4.13;2.43;;;;;;;12.66;63.81;100737.95;5223723;56;1136892;-75
2022/05/13 01:52:56;;;;;;;3.00;2.10;;;;;;;12.64;64.21;100734.58;5223470;56;1137142;-74
2022/05/13 01:58:02;;;;;;;8.27;2.30;;;;;;;12.55;64.07;100735.81;5223546;56;1137029;-76
2022/05/13 02:08:33;;;;;;;6.60;2.63;;;;;;;12.35;64.65;100725.53;5194161;56;1144442;-73
2022/05/13 02:13:39;;;;;;;4.47;2.13;;;;;;;12.29;65.13;100721.55;5212886;56;1139081;-76
2022/05/13 02:18:45;;;;;;;9.10;3.30;;;;;;;12.16;65.19;100711.59;5150017;56;1139015;-75
2022/05/13 02:23:51;;;;;;;7.93;2.70;;;;;;;12.08;65.64;100713.16;5141197;56;1139425;-73
2022/05/13 02:29:01;;;;;;;5.53;2.70;;;;;;;12.06;65.68;100700.53;5162524;57;1139260;-75
2022/05/13 02:34:04;;;;;;;2.87;2.23;;;;;;;12.02;65.93;100707.89;5205462;56;1138969;-76
2022/05/13 02:39:10;;;;;;;4.30;2.60;;;;;;;11.98;66.09;100703.31;5249990;56;1139276;-76
2022/05/13 02:44:16;;;;;;;4.67;3.00;;;;;;;11.97;66.09;100706.92;5244609;56;1139046;-73
2022/05/13 02:49:22;;;;;;;6.90;2.90;;;;;;;11.92;66.31;100709.57;5249842;56;1139024;-73
2022/05/13 02:54:27;;;;;;;8.75;3.40;;;;;;;11.87;66.58;100708.64;5244517;56;1139118;-76
2022/05/13 02:59:33;;;;;;;8.87;2.90;;;;;;;11.83;66.77;100705.86;5244248;56;1139089;-74
2022/05/13 03:04:39;;;;;;;7.17;2.80;;;;;;;11.79;66.95;100707.06;5235769;56;1139066;-75
2022/05/13 03:09:44;;;;;;;14.70;6.10;;;;;;;11.77;66.98;100697.06;5153442;56;1139066;-76
2022/05/13 03:14:50;;;;;;;11.70;4.23;;;;;;;11.70;66.89;100703.80;5202413;56;1141139;-75
2022/05/13 03:19:56;;;;;;;8.20;4.10;;;;;;;11.64;67.05;100708.25;5162057;57;1141134;-74
2022/05/13 03:25:02;;;;;;;6.40;3.10;;;;;;;11.64;67.35;100700.30;5172311;56;1139067;-73
2022/05/13 03:30:10;;;;;;;5.10;2.73;;;;;;;11.67;67.57;100698.73;5228595;56;1139130;-74
2022/05/13 03:35:17;;;;;;;5.25;2.58;;;;;;;11.68;67.84;100696.45;5067088;57;1139106;-74
2022/05/13 03:40:24;;;;;;;2.43;2.20;;;;;;;11.71;67.98;100692.72;5069635;57;1139343;-73
2022/05/13 03:45:32;;;;;;;3.47;2.00;;;;;;;11.81;68.27;100697.67;4966026;59;1139007;-73
2022/05/13 03:50:41;;;;;;;5.33;2.80;;;;;;;11.83;68.05;100697.07;4966058;59;1139332;-73
2022/05/13 03:55:47;;;;;;;6.27;2.90;;;;;;;11.77;68.31;100697.06;4966033;58;1139336;-75
2022/05/13 04:00:53;;;;;;;4.57;2.80;;;;;;;11.67;68.60;100702.72;4966577;58;1139151;-73
2022/05/13 04:11:16;;;;;;;9.27;3.83;;;;;;;11.55;69.19;100708.98;5112343;56;1139070;-75
2022/05/13 04:16:22;;;;;;;4.90;2.80;;;;;;;11.52;69.65;100702.59;5201601;56;1139245;-74
2022/05/13 04:21:32;;;;;;;12.07;3.40;;;;;;;11.57;70.04;100708.39;5208419;56;1139278;-74
2022/05/13 04:26:39;;;;;;;4.70;3.37;;;;;;;11.61;70.31;100704.03;5221674;56;1141075;-74
2022/05/13 04:31:45;;;;;;;4.73;3.30;;;;;;;11.69;70.87;100698.63;5212921;56;1138934;-75
2022/05/13 04:36:52;;;;;;;6.33;3.03;;;;;;;11.82;71.08;100701.52;5231489;56;1139041;-73
2022/05/13 04:52:43;;;;;;;;;;;;;;;12.24;71.05;100705.65;5208124;56;1136930;-73
2022/05/13 04:57:49;;;;;;;11.77;3.23;;;;;;;12.32;71.08;100707.20;5230267;56;974299;-74
2022/05/13 05:02:55;;;;;;;7.80;3.60;;;;;;;12.38;70.97;100704.52;5230138;56;1136930;-74
2022/05/13 05:08:01;;;;;;;4.73;3.20;;;;;;;12.44;70.69;100698.23;5227954;56;1136902;-74
2022/05/13 05:13:08;;;;;;;6.37;3.40;;;;;;;12.52;70.52;100703.77;5158309;57;1137109;-74
2022/05/13 05:18:16;;;;;;;4.73;2.60;;;;;;;12.67;70.40;100705.63;5151228;56;1137000;-73
2022/05/13 05:23:27;;;;;;;6.77;3.20;;;;;;;12.80;69.77;100715.58;5151193;56;1136988;-74
2022/05/13 05:28:33;;;;;;;6.23;3.00;;;;;;;12.95;69.76;100711.63;5150870;57;1137106;-74
2022/05/13 05:33:40;;;;;;;5.07;3.43;;;;;;;13.12;69.39;100714.19;5186183;56;1137050;-74
2022/05/13 05:38:45;;;;;;;8.13;3.53;;;;;;;13.30;68.66;100717.94;5178037;56;1136963;-73
2022/05/13 05:43:51;;;;;;;12.60;3.40;;;;;;;13.37;67.44;100722.25;5150928;57;1134834;-73
2022/05/13 05:48:58;;;;;;;6.73;2.83;;;;;;;13.50;67.73;100714.05;5156495;56;1137479;-73
2022/05/13 05:59:27;;;;;;;5.47;2.98;;;;;;;13.83;67.13;100716.92;5167952;56;1139053;-74
2022/05/13 06:04:33;;;;;;;7.67;3.10;;;;;;;13.97;66.59;100717.38;5207683;56;1139027;-74
2022/05/13 06:09:41;;;;;;;5.87;2.73;;;;;;;14.17;66.34;100718.27;5231995;56;1138952;-73
2022/05/13 06:14:47;;;;;;;7.00;2.70;;;;;;;14.56;66.37;100714.34;5197343;56;1138888;-75
2022/05/13 06:19:53;;;;;;;5.93;2.87;;;;;;;14.56;66.37;100714.34;5194471;56;1139062;-75
2022/05/13 06:24:59;;;;;;;13.73;3.10;;;;;;;14.74;65.28;100706.84;5197729;56;1139208;-75
2022/05/13 06:30:08;;;;;;;4.20;2.30;;;;;;;14.89;63.06;100713.91;5226875;56;1141138;-74
2022/05/13 06:35:14;;;;;;;10.03;2.30;;;;;;;15.01;63.74;100711.44;5179557;56;1138999;-74
2022/05/13 06:40:26;;;;;;;5.10;2.80;;;;;;;15.22;62.20;100715.75;5188863;56;1141138;-75
2022/05/13 06:45:28;;;;;;;4.63;1.63;;;;;;;15.30;60.66;100716.70;5236367;56;1139023;-75
2022/05/13 06:50:35;;;;;;;3.70;1.80;;;;;;;15.41;59.64;100710.38;5184637;56;1139068;-74
2022/05/13 06:55:43;;;;;;;3.87;2.17;;;;;;;15.55;61.00;100708.60;5172771;56;1139207;-74
2022/05/13 07:00:49;;;;;;;7.53;2.37;;;;;;;15.79;59.70;100700.91;5181911;56;1139043;-74
2022/05/13 07:05:55;;;;;;;4.20;1.83;;;;;;;15.93;58.08;100698.23;5191020;56;1139005;-74
2022/05/13 07:11:01;;;;;;;11.10;2.07;;;;;;;16.08;59.46;100685.22;5212367;56;1138949;-74
2022/05/13 07:16:07;;;;;;;3.55;2.12;;;;;;;16.33;57.98;100685.00;5181322;56;1141183;-75
2022/05/13 07:21:14;;;;;;;6.73;2.00;;;;;;;16.46;57.34;100672.95;5131447;56;1139022;-76
2022/05/13 07:26:20;;;;;;;9.58;2.27;;;;;;;16.63;56.21;100672.62;5204624;56;1139030;-76
2022/05/13 07:31:26;;;;;;;6.93;2.70;;;;;;;16.76;55.32;100665.55;5150675;56;1139077;-74
2022/05/13 07:36:32;;;;;;;7.97;2.00;;;;;;;16.91;55.44;100668.48;5235486;56;1139082;-74
2022/05/13 07:41:38;;;;;;;5.23;1.50;;;;;;;17.12;56.47;100656.42;5195974;56;1139048;-74
2022/05/13 07:46:44;;;;;;;5.17;2.10;;;;;;;17.39;52.69;100657.27;5165538;56;1139136;-77
2022/05/13 07:51:49;;;;;;;2.07;1.20;;;;;;;17.49;52.84;100658.81;5171661;56;1139279;-76
2022/05/13 07:56:55;;;;;;;4.90;1.40;;;;;;;17.67;51.77;100657.91;5159575;55;1138941;-74
2022/05/13 08:02:02;;;;;;;3.70;1.80;;;;;;;17.84;52.20;100643.59;5151764;56;1138440;-76
2022/05/13 08:07:07;;;;;;;8.23;1.83;;;;;;;18.07;49.77;100645.14;5180417;56;1139093;-75
2022/05/13 08:12:13;;;;;;;8.37;1.67;;;;;;;18.10;50.52;100640.81;5150074;57;1139083;-75
2022/05/13 08:17:20;;;;;;;13.60;1.93;;;;;;;18.17;48.65;100644.02;5208758;56;1139128;-74
2022/05/13 08:22:26;;;;;;;5.47;1.47;;;;;;;18.12;47.97;100640.15;5161281;56;1141131;-75
2022/05/13 08:27:35;;;;;;;5.23;2.20;;;;;;;18.18;50.20;100636.82;5171854;56;1139023;-75
2022/05/13 08:32:41;;;;;;;6.27;1.60;;;;;;;18.32;48.80;100646.04;5169263;56;1139031;-75
2022/05/13 08:37:53;;;;;;;4.00;2.30;;;;;;;18.55;46.25;100636.33;5209696;56;1139005;-75
2022/05/13 08:43:00;;;;;;;17.07;2.23;;;;;;;18.64;46.29;100629.98;5194289;56;1137102;-76
2022/05/13 08:48:10;;;;;;;5.60;2.90;;;;;;;18.72;45.63;100635.35;5150976;57;1139145;-75
2022/05/13 08:53:37;;;;;;;6.00;2.30;;;;;;;18.84;45.71;100619.25;5120692;57;1137015;-75
2022/05/13 08:58:51;;;;;;;6.70;2.30;;;;;;;19.05;45.40;100611.18;5176287;56;1137144;-75
2022/05/13 09:04:07;;;;;;;4.00;2.30;;;;;;;19.33;45.32;100611.92;5149589;56;1137060;-77
2022/05/13 09:09:13;;;;;;;4.40;2.25;;;;;;;19.47;45.99;100616.23;5170005;56;1137010;-76
2022/05/13 09:14:27;;;;;;;8.15;2.40;;;;;;;19.63;43.84;100615.69;5175975;56;1136911;-74
2022/05/13 09:19:40;;;;;;;7.37;3.30;;;;;;;19.59;44.47;100606.81;5187897;56;1134977;-74
2022/05/13 09:24:48;;;;;;;6.95;2.62;;;;;;;19.48;42.94;100612.03;5211647;56;1140084;-75
2022/05/13 09:29:54;;;;;;;4.42;2.62;;;;;;;19.32;43.81;100608.91;5167250;56;1138982;-75
2022/05/13 09:35:08;;;;;;;4.17;2.20;;;;;;;19.27;44.45;100607.74;5186792;56;1139341;-74
2022/05/13 09:40:18;;;;;;;9.50;2.60;;;;;;;19.36;45.60;100609.91;5246944;56;1139022;-75
2022/05/13 09:45:33;;;;;;;4.30;2.60;;;;;;;19.46;44.07;100597.11;5245503;56;1139156;-75
2022/05/13 09:50:45;;;;;;;8.33;1.92;;;;;;;19.56;44.05;100597.26;5249267;56;1139086;-74
2022/05/13 09:56:03;;;;;;;8.38;3.55;;;;;;;19.55;43.56;100578.68;5246101;56;1139055;-74
2022/05/13 10:01:18;;;;;;;5.12;1.90;;;;;;;19.74;42.83;100572.84;5228370;56;1139007;-74
2022/05/13 10:06:21;;;;;;;3.10;2.45;;;;;;;19.74;42.83;100572.84;5213114;56;1139191;-75
2022/05/13 10:16:57;;;;;;;3.65;2.90;;;;;;;19.88;43.52;100561.85;5191037;56;1139261;-75
2022/05/13 10:22:31;;;;;;;8.04;2.56;;;;;;;20.13;42.04;100563.88;5198989;56;1138892;-74
2022/05/13 10:27:53;;;;;;;6.80;2.22;;;;;;;20.13;41.67;100564.71;5221998;56;1139026;-75
2022/05/13 10:33:27;;;;;;;4.87;2.60;;;;;;;19.94;41.00;100555.78;5248354;56;1139265;-75
2022/05/13 10:38:55;;;;;;;9.50;2.80;;;;;;;19.72;41.73;100557.93;5191299;56;1136891;-74
2022/05/13 10:44:17;;;;;;;12.53;2.60;;;;;;;19.56;41.85;100558.86;5207457;56;1136909;-75
2022/05/13 10:49:31;;;;;;;6.13;2.40;;;;;;;19.44;42.44;100551.69;5240065;56;1139020;-75
2022/05/13 10:54:50;;;;;;;4.45;2.12;;;;;;;19.31;43.25;100557.62;5198721;56;1136888;-75
2022/05/13 11:00:20;;;;;;;7.97;1.90;;;;;;;19.24;42.88;100559.34;5239904;56;1134889;-75
2022/05/13 11:05:39;;;;;;;4.95;2.15;;;;;;;19.15;43.87;100553.66;5184428;56;1139243;-75
2022/05/13 11:11:24;;;;;;;3.70;1.55;;;;;;;19.23;44.33;100559.02;5200623;56;1139000;-74
2022/05/13 11:17:07;;;;;;;5.83;2.20;;;;;;;19.29;44.68;100550.75;5202328;56;1139094;-76
2022/05/13 11:22:32;;;;;;;6.10;2.55;;;;;;;19.35;43.66;100542.02;5128566;56;1139540;-76
2022/05/13 11:28:10;;;;;;;15.35;2.45;;;;;;;19.35;43.61;100547.89;5218349;56;1138989;-77
2022/05/13 11:33:42;;;;;;;7.20;2.25;;;;;;;19.51;44.15;100537.95;5197570;56;1141182;-76
2022/05/13 11:39:12;;;;;;;3.52;1.32;;;;;;;19.74;41.67;100517.00;5187990;56;1136960;-76
2022/05/13 11:44:22;;;;;;;4.37;1.62;;;;;;;19.81;42.68;100519.31;5150707;56;1137007;-77
2022/05/13 11:49:40;;;;;;;5.87;1.80;;;;;;;19.97;42.00;100509.29;5163644;56;1136955;-75
2022/05/13 12:00:50;;;;;;;4.45;2.15;;;;;;;20.30;39.62;100510.35;5169440;56;1141335;-76
2022/05/13 12:06:11;;;;;;;4.42;1.55;;;;;;;20.30;39.60;100499.10;5211237;56;1139027;-75
2022/05/13 12:11:41;;;;;;;2.17;1.80;;;;;;;20.24;39.94;100503.02;5209283;56;1139181;-75
2022/05/13 12:17:12;;;;;;;7.95;2.12;;;;;;;20.14;38.68;100504.63;5162551;56;1139066;-76
2022/05/13 12:22:54;;;;;;;3.60;2.35;;;;;;;20.00;38.23;100488.80;5194477;56;1139129;-76
2022/05/13 12:28:19;;;;;;;4.03;1.62;;;;;;;20.03;38.42;100500.49;5219558;56;1139176;-75
2022/05/13 12:33:30;;;;;;;4.92;1.55;;;;;;;20.40;38.09;100490.80;5204035;56;1139302;-75
2022/05/13 12:39:15;;;;;;;4.60;1.60;;;;;;;20.68;37.75;100492.34;5216181;56;1139137;-75
2022/05/13 12:44:37;;;;;;;4.40;1.57;;;;;;;20.62;35.48;100485.05;5213700;56;1137139;-75
2022/05/13 12:50:20;;;;;;;2.87;1.23;;;;;;;20.46;36.55;100482.02;5161136;57;1137265;-75
2022/05/13 12:55:27;;;;;;;2.83;1.50;;;;;;;20.71;35.35;100483.41;5242499;56;1135062;-75
2022/05/13 13:00:37;;;;;;;10.23;2.17;;;;;;;20.62;36.48;100475.64;5208902;56;1138970;-75
2022/05/13 13:05:48;;;;;;;3.77;1.53;;;;;;;20.59;37.57;100477.34;5217162;56;1141306;-75
2022/05/13 13:11:23;;;;;;;7.40;1.40;;;;;;;20.68;38.93;100466.81;5162282;57;1139181;-75
2022/05/13 13:16:51;;;;;;;8.43;2.20;;;;;;;20.78;37.01;100463.86;5233028;56;1138900;-74
2022/05/13 13:22:08;;;;;;;4.00;1.75;;;;;;;20.75;37.12;100450.79;5177668;56;1139057;-74
2022/05/13 13:27:20;;;;;;;3.92;1.22;;;;;;;20.75;37.15;100446.76;5183727;56;1139015;-75
2022/05/13 13:32:26;;;;;;;4.63;2.57;;;;;;;20.80;37.55;100440.30;5202019;56;1139013;-75
2022/05/13 13:37:38;;;;;;;8.93;2.90;;;;;;;20.78;37.62;100441.02;5192490;56;1138991;-76
2022/05/13 13:42:45;;;;;;;6.00;2.00;;;;;;;20.88;39.01;100441.55;5183809;56;1139334;-76
2022/05/13 13:47:57;;;;;;;9.15;2.22;;;;;;;21.22;37.62;100439.61;5209411;56;1139055;-75
2022/05/13 13:53:03;;;;;;;3.15;2.08;;;;;;;21.32;36.35;100431.55;5236162;56;1139002;-75
2022/05/13 13:58:17;;;;;;;3.62;2.98;;;;;;;21.08;35.84;100432.68;5197440;55;1139148;-76
2022/05/13 14:03:28;;;;;;;91.17;58.70;;;;;;;20.77;37.11;100436.66;5211848;56;1139045;-75
2022/05/13 14:08:40;;;;;;;51.77;27.43;;;;;;;20.48;38.02;100441.50;5239314;56;1143172;-76
2022/05/13 14:13:49;;;;;;;14.07;5.73;;;;;;;20.25;39.08;100449.12;5176504;56;1143435;-76
2022/05/13 14:19:06;;;;;;;38.20;21.87;;;;;;;20.17;39.66;100453.21;5237297;56;1141109;-75
2022/05/13 14:24:11;;;;;;;16.27;7.75;;;;;;;20.24;40.38;100447.45;5227424;56;1141354;-75
2022/05/13 14:29:17;;;;;;;12.47;7.85;;;;;;;20.12;40.53;100458.31;5157531;56;1139290;-76
2022/05/13 14:34:24;;;;;;;21.52;8.38;;;;;;;19.84;41.61;100480.04;5188729;56;1139096;-76
2022/05/13 14:39:49;;;;;;;24.23;16.87;;;;;;;19.30;44.74;100488.06;5226617;56;1139053;-76
2022/05/13 14:44:58;;;;;;;15.25;6.53;;;;;;;19.01;46.68;100512.84;5225834;56;1141354;-76
2022/05/13 14:50:16;;;;;;;13.83;6.37;;;;;;;18.73;48.67;100527.67;5227574;56;1138970;-76
2022/05/13 14:55:32;;;;;;;14.47;7.78;;;;;;;18.42;50.44;100531.55;5227348;56;1139058;-75
2022/05/13 15:00:42;;;;;;;19.45;9.50;;;;;;;18.15;51.34;100537.60;5227393;56;1138985;-74
2022/05/13 15:05:51;;;;;;;13.40;5.60;;;;;;;17.88;51.86;100534.72;5191704;56;1137168;-74
2022/05/13 15:10:57;;;;;;;14.87;5.90;;;;;;;17.82;52.42;100535.40;5157219;56;1141313;-76
2022/05/13 15:16:04;;;;;;;8.88;5.10;;;;;;;17.78;52.25;100527.86;5141293;56;1141083;-74
2022/05/13 15:21:12;;;;;;;9.40;4.07;;;;;;;17.81;52.21;100529.71;5232089;56;1138966;-75
2022/05/13 15:26:25;;;;;;;10.33;3.80;;;;;;;17.91;52.11;100530.88;5242343;56;1139000;-75
2022/05/13 15:31:31;;;;;;;9.47;3.80;;;;;;;17.92;51.93;100538.75;5136985;56;1141136;-75
2022/05/13 15:36:40;;;;;;;10.43;3.33;;;;;;;17.91;51.56;100537.57;5162310;56;1139211;-75
2022/05/13 15:41:46;;;;;;;7.37;3.30;;;;;;;17.90;51.56;100541.25;5101044;56;1141136;-74
2022/05/13 15:46:51;;;;;;;12.10;2.97;;;;;;;17.88;51.45;100549.44;5092080;57;1139121;-75
2022/05/13 15:57:25;;;;;;;2.63;1.87;;;;;;;17.84;49.10;100545.94;5080669;57;1139060;-75
2022/05/13 16:02:32;;;;;;;8.40;3.47;;;;;;;17.78;48.47;100562.14;5080827;57;1139308;-75
2022/05/13 16:07:37;;;;;;;6.33;2.50;;;;;;;17.77;48.67;100573.84;5173272;56;1139235;-75
2022/05/13 16:12:48;;;;;;;7.37;2.47;;;;;;;17.73;48.25;100585.02;5164845;57;1138999;-75
2022/05/13 16:17:56;;;;;;;7.87;2.57;;;;;;;17.64;48.76;100590.86;5080791;58;1139322;-74
2022/05/13 16:23:03;;;;;;;15.80;3.30;;;;;;;17.57;48.99;100599.98;5125223;57;1139076;-74
2022/05/13 16:28:10;;;;;;;7.53;2.20;;;;;;;17.48;49.26;100610.83;5164660;57;1141253;-74
2022/05/13 16:33:16;;;;;;;6.27;1.80;;;;;;;17.35;49.57;100613.13;5193215;56;1139337;-75
2022/05/13 16:38:21;;;;;;;6.67;2.20;;;;;;;17.27;49.75;100615.73;5251564;56;1139285;-75
2022/05/13 16:43:28;;;;;;;6.43;2.57;;;;;;;17.13;49.90;100614.50;5251719;56;1139320;-75
2022/05/13 16:48:35;;;;;;;8.10;2.37;;;;;;;17.11;50.38;100624.55;5251618;56;1139093;-76
2022/05/13 16:53:45;;;;;;;10.53;2.90;;;;;;;17.02;50.49;100622.80;5251613;56;1139031;-75
2022/05/13 16:58:50;;;;;;;7.90;3.10;;;;;;;16.99;51.01;100629.29;5251494;56;1141146;-75
2022/05/13 17:03:56;;;;;;;7.87;3.60;;;;;;;17.07;51.70;100643.22;5251368;56;1139015;-75
2022/05/13 17:19:48;;;;;;;;;;;;;;;17.67;52.40;100648.05;5246071;56;1137071;-73
2022/05/13 17:24:54;;;;;;;5.57;2.73;;;;;;;17.60;52.30;100650.98;5186821;56;974501;-73
2022/05/13 17:29:59;;;;;;;10.03;4.60;;;;;;;17.42;52.53;100658.25;5163590;56;1134892;-74
2022/05/13 17:35:07;;;;;;;13.90;2.87;;;;;;;17.26;52.90;100663.05;5223676;56;1139100;-76
2022/05/13 17:40:34;;;;;;;5.63;3.13;;;;;;;17.15;53.04;100666.80;5128307;57;1139159;-75
2022/05/13 17:45:43;;;;;;;13.40;3.07;;;;;;;17.04;53.42;100672.42;5163353;57;1137036;-74
2022/05/13 17:50:54;;;;;;;9.57;3.10;;;;;;;16.93;53.71;100678.03;5158970;57;1139068;-75
2022/05/13 17:55:59;;;;;;;16.60;3.43;;;;;;;16.91;53.72;100686.70;5163291;57;1136986;-75
2022/05/13 18:01:07;;;;;;;4.63;1.97;;;;;;;16.81;53.91;100688.10;5216977;56;1139072;-74
2022/05/13 18:06:13;;;;;;;5.77;2.03;;;;;;;16.74;54.07;100688.40;5208728;56;1136523;-74
2022/05/13 18:11:18;;;;;;;5.73;2.60;;;;;;;16.61;54.34;100695.09;5163463;56;1136997;-75
2022/05/13 18:16:25;;;;;;;8.93;4.67;;;;;;;16.53;54.61;100703.86;5224559;56;1134986;-74
2022/05/13 18:21:30;;;;;;;10.10;3.20;;;;;;;16.53;54.92;100704.70;5249910;56;1135057;-75
2022/05/13 18:26:38;;;;;;;9.43;3.47;;;;;;;16.48;54.94;100706.16;5250658;56;1141224;-76
2022/05/13 18:31:45;;;;;;;6.83;2.50;;;;;;;16.39;55.20;100716.40;5242643;56;1139015;-76
2022/05/13 18:36:51;;;;;;;11.07;3.20;;;;;;;16.31;55.46;100729.19;5164967;55;1145287;-75
2022/05/13 18:47:20;;;;;;;15.85;4.67;;;;;;;16.03;56.24;100735.55;5162047;57;1141266;-76
2022/05/13 18:52:29;;;;;;;14.83;3.10;;;;;;;15.87;56.82;100748.68;5161882;57;1141365;-76
2022/05/13 18:57:34;;;;;;;19.83;5.37;;;;;;;15.71;57.31;100750.64;5180957;56;1141012;-75
2022/05/13 19:02:39;;;;;;;15.37;6.63;;;;;;;15.56;58.04;100754.77;5248737;56;1141313;-75
2022/05/13 19:07:45;;;;;;;29.37;11.57;;;;;;;15.47;58.50;100762.59;5248480;56;1141101;-76
2022/05/13 19:12:50;;;;;;;25.23;11.60;;;;;;;15.45;58.42;100767.72;5233556;56;1143305;-77
2022/05/13 19:17:57;;;;;;;12.70;5.27;;;;;;;15.40;58.16;100770.84;5162033;57;1143228;-76
2022/05/13 19:23:03;;;;;;;14.60;4.60;;;;;;;15.38;57.91;100776.80;5161323;57;1141161;-75
2022/05/13 19:28:11;;;;;;;15.33;3.57;;;;;;;15.36;57.40;100777.92;5150753;57;1141106;-75
2022/05/13 19:33:17;;;;;;;14.13;3.30;;;;;;;15.36;57.35;100780.09;5179203;56;1141191;-76
2022/05/13 19:38:24;;;;;;;10.33;2.90;;;;;;;15.35;57.39;100778.91;5236997;56;1141123;-76
2022/05/13 19:43:29;;;;;;;11.27;5.07;;;;;;;15.30;58.00;100774.48;5237147;56;1141158;-75
2022/05/13 19:53:43;;;;;;;10.57;3.63;;;;;;;15.24;57.96;100785.24;5274532;55;46184;-74
2022/05/13 19:58:48;;;;;;;8.27;3.20;;;;;;;15.12;57.94;100791.19;5075755;57;1137068;-74
2022/05/13 20:03:54;;;;;;;6.37;3.00;;;;;;;15.07;58.02;100797.95;5085283;57;1139353;-74
2022/05/13 20:14:24;;;;;;;6.73;2.17;;;;;;;14.84;58.24;100797.38;5082954;57;1139035;-74
2022/05/13 20:19:29;;;;;;;28.50;14.50;;;;;;;14.77;58.60;100798.44;5116244;57;1139023;-74
2022/05/13 20:24:35;;;;;;;7.63;2.90;;;;;;;14.70;58.65;100799.95;5048306;58;1143192;-74
2022/05/13 20:29:41;;;;;;;9.63;3.00;;;;;;;14.62;58.74;100805.14;5121953;57;1139241;-76
2022/05/13 20:34:47;;;;;;;3.57;2.13;;;;;;;14.52;59.13;100806.09;5109565;57;1139028;-77
2022/05/13 20:39:53;;;;;;;6.43;2.27;;;;;;;14.42;60.21;100816.23;5011850;57;1139012;-76
2022/05/13 20:44:59;;;;;;;5.23;2.20;;;;;;;14.32;60.01;100814.50;5094340;57;1139091;-76
2022/05/13 20:50:06;;;;;;;5.00;2.10;;;;;;;14.26;60.38;100814.55;5104878;57;1139049;-77
2022/05/13 20:55:12;;;;;;;9.43;1.77;;;;;;;14.19;61.02;100814.75;5125496;57;1139290;-76
2022/05/13 21:00:19;;;;;;;4.47;2.50;;;;;;;14.12;61.38;100820.72;5174917;57;1139053;-76
2022/05/13 21:05:27;;;;;;;6.43;2.10;;;;;;;14.06;61.70;100820.77;5151965;57;1138961;-76
2022/05/13 21:10:32;;;;;;;8.80;3.37;;;;;;;14.02;61.58;100822.88;5068599;56;1136969;-76
2022/05/13 21:15:38;;;;;;;9.33;4.13;;;;;;;14.00;61.47;100826.14;5125277;56;1136919;-77
2022/05/13 21:20:44;;;;;;;6.03;2.13;;;;;;;13.98;61.99;100831.23;5141823;56;1136953;-76
2022/05/13 21:25:50;;;;;;;5.85;1.65;;;;;;;13.90;62.07;100831.89;5141481;56;1136936;-77
2022/05/13 21:30:56;;;;;;;7.87;2.37;;;;;;;13.84;62.33;100825.80;5141441;56;1136895;-76
2022/05/13 21:41:25;;;;;;;;;;;;;;;13.76;62.78;100835.38;5112688;58;1137151;-76
2022/05/13 21:46:32;;;;;;;4.73;1.77;;;;;;;13.69;62.77;100833.27;5111253;58;974275;-76
2022/05/13 21:57:01;;;;;;;5.10;2.35;;;;;;;13.63;63.24;100836.92;5075828;57;1136969;-77
2022/05/13 22:02:09;;;;;;;7.53;2.40;;;;;;;13.61;63.55;100842.85;5162950;57;1137242;-76
2022/05/13 22:07:22;;;;;;;10.70;2.00;;;;;;;13.57;63.57;100841.45;5154365;57;1134895;-76
2022/05/13 22:12:24;;;;;;;3.73;2.03;;;;;;;13.56;63.58;100838.44;5143020;57;1141077;-77
2022/05/13 22:17:30;;;;;;;6.28;2.45;;;;;;;13.59;63.52;100840.84;5093886;57;1139054;-74
2022/05/13 22:22:36;;;;;;;7.77;1.73;;;;;;;13.64;63.50;100835.47;5074220;58;1139011;-74
2022/05/13 22:27:42;;;;;;;5.17;2.07;;;;;;;13.61;63.30;100838.87;5074017;58;1139012;-75
2022/05/13 22:32:48;;;;;;;5.57;1.90;;;;;;;13.55;63.47;100837.59;5094369;57;1139097;-75
2022/05/13 22:37:53;;;;;;;3.90;1.43;;;;;;;13.52;63.93;100831.69;5162135;57;1139038;-73
2022/05/13 22:42:59;;;;;;;7.00;2.27;;;;;;;13.47;64.60;100832.55;5162013;57;1139090;-76
2022/05/13 22:48:10;;;;;;;7.37;2.30;;;;;;;13.43;64.80;100828.01;5124956;57;1139159;-77
2022/05/13 22:53:16;;;;;;;7.47;2.57;;;;;;;13.43;65.04;100814.73;5068245;58;1139074;-76
2022/05/13 22:58:24;;;;;;;6.53;2.10;;;;;;;13.43;65.09;100829.34;5053488;58;1139097;-77
2022/05/13 23:03:32;;;;;;;9.57;1.83;;;;;;;13.39;65.29;100827.91;5053423;58;1139165;-73
2022/05/13 23:14:03;;;;;;;4.10;2.43;;;;;;;13.23;66.06;100827.50;5143054;57;1139186;-74
2022/05/13 23:19:09;;;;;;;6.07;1.80;;;;;;;13.15;66.48;100828.61;5110242;57;1139106;-74
2022/05/13 23:24:19;;;;;;;7.27;1.73;;;;;;;13.10;66.82;100835.62;5148665;57;1139074;-75
2022/05/13 23:29:25;;;;;;;4.53;2.20;;;;;;;13.03;68.07;100831.78;5148517;57;1139087;-75
2022/05/13 23:34:30;;;;;;;6.33;2.47;;;;;;;12.97;67.59;100827.84;5181128;56;1139021;-76
2022/05/13 23:39:37;;;;;;;5.33;2.33;;;;;;;12.97;67.92;100839.78;5137305;57;1139069;-75
2022/05/13 23:44:43;;;;;;;3.60;1.67;;;;;;;12.93;68.27;100829.05;5200385;56;1139081;-75
2022/05/13 23:49:49;;;;;;;6.47;2.20;;;;;;;12.91;68.32;100829.66;5176577;56;1139052;-75
